sensor_id;sensor_type;location;lat;lon;timestamp;P1;durP1;ratioP1;P2;durP2;ratioP2
76795;SDS011;65745;50.278;18.192;2023-07-29T00:00:17;6.80;;;6.10;;
76795;SDS011;65745;50.278;18.192;2023-07-29T00:03:09;8.40;;;6.30;;
76795;SDS011;65745;50.278;18.192;2023-07-29T00:05:42;7.00;;;6.30;;
76795;SDS011;65745;50.278;18.192;2023-07-29T00:08:14;7.80;;;6.50;;
76795;SDS011;65745;50.278;18.192;2023-07-29T00:10:46;6.70;;;6.10;;
76795;SDS011;65745;50.278;18.192;2023-07-29T00:13:18;7.00;;;6.30;;
76795;SDS011;65745;50.278;18.192;2023-07-29T00:15:53;6.40;;;5.80;;
76795;SDS011;65745;50.278;18.192;2023-07-29T00:18:25;6.90;;;5.80;;
76795;SDS011;65745;50.278;18.192;2023-07-29T00:20:57;6.10;;;5.50;;
76795;SDS011;65745;50.278;18.192;2023-07-29T00:23:30;8.80;;;6.80;;
76795;SDS011;65745;50.278;18.192;2023-07-29T00:26:02;8.30;;;5.90;;
76795;SDS011;65745;50.278;18.192;2023-07-29T00:28:34;6.40;;;5.70;;
76795;SDS011;65745;50.278;18.192;2023-07-29T00:31:06;6.20;;;5.60;;
76795;SDS011;65745;50.278;18.192;2023-07-29T00:33:40;7.50;;;5.90;;
76795;SDS011;65745;50.278;18.192;2023-07-29T00:36:12;7.10;;;6.00;;
76795;SDS011;65745;50.278;18.192;2023-07-29T00:38:44;6.50;;;5.90;;
76795;SDS011;65745;50.278;18.192;2023-07-29T00:41:17;7.40;;;5.40;;
76795;SDS011;65745;50.278;18.192;2023-07-29T00:43:49;7.00;;;6.10;;
76795;SDS011;65745;50.278;18.192;2023-07-29T00:46:21;6.80;;;6.10;;
76795;SDS011;65745;50.278;18.192;2023-07-29T00:48:54;7.00;;;5.20;;
76795;SDS011;65745;50.278;18.192;2023-07-29T00:51:27;7.20;;;5.50;;
76795;SDS011;65745;50.278;18.192;2023-07-29T00:53:59;8.30;;;5.60;;
76795;SDS011;65745;50.278;18.192;2023-07-29T00:56:32;5.80;;;5.20;;
76795;SDS011;65745;50.278;18.192;2023-07-29T00:59:04;6.20;;;5.30;;
76795;SDS011;65745;50.278;18.192;2023-07-29T01:01:37;6.20;;;5.30;;
76795;SDS011;65745;50.278;18.192;2023-07-29T01:04:11;5.50;;;4.90;;
76795;SDS011;65745;50.278;18.192;2023-07-29T01:06:45;6.10;;;5.50;;
76795;SDS011;65745;50.278;18.192;2023-07-29T01:09:38;7.00;;;5.80;;
76795;SDS011;65745;50.278;18.192;2023-07-29T01:12:20;6.80;;;6.10;;
76795;SDS011;65745;50.278;18.192;2023-07-29T01:14:58;6.90;;;6.20;;
76795;SDS011;65745;50.278;18.192;2023-07-29T01:17:36;6.40;;;5.50;;
76795;SDS011;65745;50.278;18.192;2023-07-29T01:20:13;6.20;;;5.70;;
76795;SDS011;65745;50.278;18.192;2023-07-29T01:22:49;6.30;;;5.70;;
76795;SDS011;65745;50.278;18.192;2023-07-29T01:25:21;7.10;;;5.80;;
76795;SDS011;65745;50.278;18.192;2023-07-29T01:27:53;5.90;;;5.30;;
76795;SDS011;65745;50.278;18.192;2023-07-29T01:30:28;6.00;;;5.30;;
76795;SDS011;65745;50.278;18.192;2023-07-29T01:33:08;7.00;;;5.10;;
76795;SDS011;65745;50.278;18.192;2023-07-29T01:35:44;5.20;;;4.60;;
76795;SDS011;65745;50.278;18.192;2023-07-29T01:38:21;5.40;;;4.90;;
76795;SDS011;65745;50.278;18.192;2023-07-29T01:41:02;6.30;;;5.30;;
76795;SDS011;65745;50.278;18.192;2023-07-29T01:43:36;5.50;;;4.90;;
76795;SDS011;65745;50.278;18.192;2023-07-29T01:46:13;6.40;;;5.10;;
76795;SDS011;65745;50.278;18.192;2023-07-29T01:48:46;5.50;;;5.00;;
76795;SDS011;65745;50.278;18.192;2023-07-29T01:51:18;7.20;;;5.80;;
76795;SDS011;65745;50.278;18.192;2023-07-29T01:53:50;5.40;;;4.90;;
76795;SDS011;65745;50.278;18.192;2023-07-29T01:56:24;7.00;;;5.90;;
76795;SDS011;65745;50.278;18.192;2023-07-29T01:58:57;6.30;;;5.60;;
76795;SDS011;65745;50.278;18.192;2023-07-29T02:01:30;5.50;;;5.00;;
76795;SDS011;65745;50.278;18.192;2023-07-29T02:04:02;5.90;;;5.30;;
76795;SDS011;65745;50.278;18.192;2023-07-29T02:06:34;7.00;;;5.40;;
76795;SDS011;65745;50.278;18.192;2023-07-29T02:09:07;5.90;;;4.70;;
76795;SDS011;65745;50.278;18.192;2023-07-29T02:11:39;6.00;;;4.90;;
76795;SDS011;65745;50.278;18.192;2023-07-29T02:14:11;6.40;;;5.70;;
76795;SDS011;65745;50.278;18.192;2023-07-29T02:16:43;6.30;;;5.20;;
76795;SDS011;65745;50.278;18.192;2023-07-29T02:19:15;6.60;;;5.50;;
76795;SDS011;65745;50.278;18.192;2023-07-29T02:21:48;8.80;;;5.90;;
76795;SDS011;65745;50.278;18.192;2023-07-29T02:24:20;7.50;;;6.80;;
76795;SDS011;65745;50.278;18.192;2023-07-29T02:26:52;8.10;;;6.70;;
76795;SDS011;65745;50.278;18.192;2023-07-29T02:29:24;7.30;;;6.60;;
76795;SDS011;65745;50.278;18.192;2023-07-29T02:31:56;7.00;;;6.30;;
76795;SDS011;65745;50.278;18.192;2023-07-29T02:34:28;7.10;;;6.40;;
76795;SDS011;65745;50.278;18.192;2023-07-29T02:37:00;7.30;;;5.50;;
76795;SDS011;65745;50.278;18.192;2023-07-29T02:39:32;7.60;;;5.70;;
76795;SDS011;65745;50.278;18.192;2023-07-29T02:42:05;6.40;;;5.70;;
76795;SDS011;65745;50.278;18.192;2023-07-29T02:44:37;7.40;;;6.30;;
76795;SDS011;65745;50.278;18.192;2023-07-29T02:47:11;6.40;;;5.60;;
76795;SDS011;65745;50.278;18.192;2023-07-29T02:49:43;6.90;;;6.30;;
76795;SDS011;65745;50.278;18.192;2023-07-29T02:52:15;7.00;;;5.80;;
76795;SDS011;65745;50.278;18.192;2023-07-29T02:54:47;5.90;;;5.10;;
76795;SDS011;65745;50.278;18.192;2023-07-29T02:57:19;7.30;;;6.10;;
76795;SDS011;65745;50.278;18.192;2023-07-29T02:59:52;5.90;;;5.20;;
76795;SDS011;65745;50.278;18.192;2023-07-29T03:02:24;5.80;;;5.20;;
76795;SDS011;65745;50.278;18.192;2023-07-29T03:04:56;7.10;;;5.50;;
76795;SDS011;65745;50.278;18.192;2023-07-29T03:07:28;6.30;;;4.80;;
76795;SDS011;65745;50.278;18.192;2023-07-29T03:10:00;6.80;;;5.00;;
76795;SDS011;65745;50.278;18.192;2023-07-29T03:12:33;5.90;;;5.40;;
76795;SDS011;65745;50.278;18.192;2023-07-29T03:15:06;6.30;;;5.70;;
76795;SDS011;65745;50.278;18.192;2023-07-29T03:17:39;5.40;;;4.90;;
76795;SDS011;65745;50.278;18.192;2023-07-29T03:20:11;5.40;;;5.00;;
76795;SDS011;65745;50.278;18.192;2023-07-29T03:22:43;6.10;;;5.20;;
76795;SDS011;65745;50.278;18.192;2023-07-29T03:25:16;6.90;;;5.30;;
76795;SDS011;65745;50.278;18.192;2023-07-29T03:27:48;5.20;;;4.70;;
76795;SDS011;65745;50.278;18.192;2023-07-29T03:30:20;5.80;;;5.20;;
76795;SDS011;65745;50.278;18.192;2023-07-29T03:32:53;6.50;;;5.30;;
76795;SDS011;65745;50.278;18.192;2023-07-29T03:35:25;5.20;;;4.70;;
76795;SDS011;65745;50.278;18.192;2023-07-29T03:37:57;6.40;;;5.30;;
76795;SDS011;65745;50.278;18.192;2023-07-29T03:40:29;6.10;;;5.40;;
76795;SDS011;65745;50.278;18.192;2023-07-29T03:43:01;7.00;;;5.60;;
76795;SDS011;65745;50.278;18.192;2023-07-29T03:45:34;8.30;;;6.30;;
76795;SDS011;65745;50.278;18.192;2023-07-29T03:48:07;7.00;;;5.60;;
76795;SDS011;65745;50.278;18.192;2023-07-29T03:50:39;6.90;;;5.40;;
76795;SDS011;65745;50.278;18.192;2023-07-29T03:53:11;6.90;;;6.30;;
76795;SDS011;65745;50.278;18.192;2023-07-29T03:55:44;6.90;;;5.80;;
76795;SDS011;65745;50.278;18.192;2023-07-29T03:58:16;6.30;;;5.60;;
76795;SDS011;65745;50.278;18.192;2023-07-29T04:00:48;7.20;;;6.50;;
76795;SDS011;65745;50.278;18.192;2023-07-29T04:03:20;6.40;;;5.80;;
76795;SDS011;65745;50.278;18.192;2023-07-29T04:05:55;7.00;;;5.40;;
76795;SDS011;65745;50.278;18.192;2023-07-29T04:08:27;7.40;;;6.00;;
76795;SDS011;65745;50.278;18.192;2023-07-29T04:11:00;6.40;;;5.70;;
76795;SDS011;65745;50.278;18.192;2023-07-29T04:13:32;5.70;;;5.10;;
76795;SDS011;65745;50.278;18.192;2023-07-29T04:16:06;9.20;;;5.80;;
76795;SDS011;65745;50.278;18.192;2023-07-29T04:18:39;5.60;;;5.10;;
76795;SDS011;65745;50.278;18.192;2023-07-29T04:21:11;5.80;;;5.20;;
76795;SDS011;65745;50.278;18.192;2023-07-29T04:23:43;6.20;;;5.10;;
76795;SDS011;65745;50.278;18.192;2023-07-29T04:26:15;5.80;;;5.10;;
76795;SDS011;65745;50.278;18.192;2023-07-29T04:28:47;7.30;;;5.60;;
76795;SDS011;65745;50.278;18.192;2023-07-29T04:31:19;7.20;;;5.40;;
76795;SDS011;65745;50.278;18.192;2023-07-29T04:33:51;7.60;;;5.70;;
76795;SDS011;65745;50.278;18.192;2023-07-29T04:36:23;10.00;;;5.70;;
76795;SDS011;65745;50.278;18.192;2023-07-29T04:38:55;8.50;;;5.70;;
76795;SDS011;65745;50.278;18.192;2023-07-29T04:41:27;7.00;;;5.10;;
76795;SDS011;65745;50.278;18.192;2023-07-29T04:44:00;7.80;;;5.80;;
76795;SDS011;65745;50.278;18.192;2023-07-29T04:46:34;6.80;;;5.20;;
76795;SDS011;65745;50.278;18.192;2023-07-29T04:49:07;7.40;;;4.80;;
76795;SDS011;65745;50.278;18.192;2023-07-29T04:51:39;5.20;;;4.70;;
76795;SDS011;65745;50.278;18.192;2023-07-29T04:54:12;5.80;;;4.60;;
76795;SDS011;65745;50.278;18.192;2023-07-29T04:56:44;6.20;;;4.70;;
76795;SDS011;65745;50.278;18.192;2023-07-29T04:59:18;5.70;;;4.70;;
76795;SDS011;65745;50.278;18.192;2023-07-29T05:01:50;7.40;;;4.80;;
76795;SDS011;65745;50.278;18.192;2023-07-29T05:04:23;6.30;;;4.80;;
76795;SDS011;65745;50.278;18.192;2023-07-29T05:06:55;5.60;;;3.90;;
76795;SDS011;65745;50.278;18.192;2023-07-29T05:09:27;6.60;;;4.50;;
76795;SDS011;65745;50.278;18.192;2023-07-29T05:12:00;5.20;;;4.70;;
76795;SDS011;65745;50.278;18.192;2023-07-29T05:14:32;8.30;;;4.40;;
76795;SDS011;65745;50.278;18.192;2023-07-29T05:17:04;7.60;;;5.10;;
76795;SDS011;65745;50.278;18.192;2023-07-29T05:19:37;5.70;;;4.50;;
76795;SDS011;65745;50.278;18.192;2023-07-29T05:22:09;6.30;;;4.90;;
76795;SDS011;65745;50.278;18.192;2023-07-29T05:24:41;9.60;;;5.00;;
76795;SDS011;65745;50.278;18.192;2023-07-29T05:27:13;5.80;;;5.30;;
76795;SDS011;65745;50.278;18.192;2023-07-29T05:29:45;4.80;;;4.40;;
76795;SDS011;65745;50.278;18.192;2023-07-29T05:32:17;5.90;;;4.30;;
76795;SDS011;65745;50.278;18.192;2023-07-29T05:34:50;4.20;;;3.80;;
76795;SDS011;65745;50.278;18.192;2023-07-29T05:37:23;4.10;;;3.70;;
76795;SDS011;65745;50.278;18.192;2023-07-29T05:39:55;4.80;;;3.90;;
76795;SDS011;65745;50.278;18.192;2023-07-29T05:42:27;5.30;;;3.70;;
76795;SDS011;65745;50.278;18.192;2023-07-29T05:44:59;4.20;;;3.80;;
76795;SDS011;65745;50.278;18.192;2023-07-29T05:47:32;4.70;;;3.50;;
76795;SDS011;65745;50.278;18.192;2023-07-29T05:50:05;4.70;;;3.90;;
76795;SDS011;65745;50.278;18.192;2023-07-29T05:52:38;3.70;;;3.40;;
76795;SDS011;65745;50.278;18.192;2023-07-29T05:55:10;3.90;;;3.30;;
76795;SDS011;65745;50.278;18.192;2023-07-29T05:57:42;3.70;;;3.30;;
76795;SDS011;65745;50.278;18.192;2023-07-29T06:00:14;3.70;;;3.10;;
76795;SDS011;65745;50.278;18.192;2023-07-29T06:02:47;3.30;;;2.90;;
76795;SDS011;65745;50.278;18.192;2023-07-29T06:05:21;4.30;;;2.90;;
76795;SDS011;65745;50.278;18.192;2023-07-29T06:07:53;4.00;;;3.10;;
76795;SDS011;65745;50.278;18.192;2023-07-29T06:10:25;3.30;;;2.70;;
76795;SDS011;65745;50.278;18.192;2023-07-29T06:12:58;6.60;;;3.10;;
76795;SDS011;65745;50.278;18.192;2023-07-29T06:15:30;3.20;;;2.90;;
76795;SDS011;65745;50.278;18.192;2023-07-29T06:18:02;3.60;;;3.00;;
76795;SDS011;65745;50.278;18.192;2023-07-29T06:20:34;2.90;;;2.70;;
76795;SDS011;65745;50.278;18.192;2023-07-29T06:23:08;3.40;;;3.10;;
76795;SDS011;65745;50.278;18.192;2023-07-29T06:25:40;3.60;;;3.10;;
76795;SDS011;65745;50.278;18.192;2023-07-29T06:28:12;3.50;;;3.00;;
76795;SDS011;65745;50.278;18.192;2023-07-29T06:30:44;3.30;;;2.80;;
76795;SDS011;65745;50.278;18.192;2023-07-29T06:33:16;3.50;;;3.20;;
76795;SDS011;65745;50.278;18.192;2023-07-29T06:35:48;3.30;;;2.60;;
76795;SDS011;65745;50.278;18.192;2023-07-29T06:38:20;3.10;;;2.70;;
76795;SDS011;65745;50.278;18.192;2023-07-29T06:40:53;3.10;;;2.70;;
76795;SDS011;65745;50.278;18.192;2023-07-29T06:43:25;4.00;;;2.70;;
76795;SDS011;65745;50.278;18.192;2023-07-29T06:45:57;3.80;;;2.40;;
76795;SDS011;65745;50.278;18.192;2023-07-29T06:48:29;3.10;;;2.20;;
76795;SDS011;65745;50.278;18.192;2023-07-29T06:51:01;3.10;;;2.70;;
76795;SDS011;65745;50.278;18.192;2023-07-29T06:53:33;2.70;;;2.50;;
76795;SDS011;65745;50.278;18.192;2023-07-29T06:56:05;3.60;;;2.60;;
76795;SDS011;65745;50.278;18.192;2023-07-29T06:58:37;2.50;;;2.10;;
76795;SDS011;65745;50.278;18.192;2023-07-29T07:01:10;2.40;;;2.20;;
76795;SDS011;65745;50.278;18.192;2023-07-29T07:03:42;2.30;;;1.80;;
76795;SDS011;65745;50.278;18.192;2023-07-29T07:06:14;2.60;;;1.90;;
76795;SDS011;65745;50.278;18.192;2023-07-29T07:08:46;2.00;;;1.70;;
76795;SDS011;65745;50.278;18.192;2023-07-29T07:11:19;2.00;;;1.80;;
76795;SDS011;65745;50.278;18.192;2023-07-29T07:13:51;3.20;;;2.10;;
76795;SDS011;65745;50.278;18.192;2023-07-29T07:16:23;2.10;;;1.90;;
76795;SDS011;65745;50.278;18.192;2023-07-29T07:18:58;3.50;;;2.10;;
76795;SDS011;65745;50.278;18.192;2023-07-29T07:21:30;2.70;;;2.10;;
76795;SDS011;65745;50.278;18.192;2023-07-29T07:24:02;3.50;;;2.00;;
76795;SDS011;65745;50.278;18.192;2023-07-29T07:26:35;2.90;;;2.00;;
76795;SDS011;65745;50.278;18.192;2023-07-29T07:29:07;2.20;;;1.90;;
76795;SDS011;65745;50.278;18.192;2023-07-29T07:31:39;3.20;;;1.90;;
76795;SDS011;65745;50.278;18.192;2023-07-29T07:34:11;2.70;;;1.70;;
76795;SDS011;65745;50.278;18.192;2023-07-29T07:36:43;2.40;;;2.00;;
76795;SDS011;65745;50.278;18.192;2023-07-29T07:39:16;1.90;;;1.70;;
76795;SDS011;65745;50.278;18.192;2023-07-29T07:41:48;2.50;;;2.00;;
76795;SDS011;65745;50.278;18.192;2023-07-29T07:44:20;2.10;;;1.80;;
76795;SDS011;65745;50.278;18.192;2023-07-29T07:46:52;2.00;;;1.80;;
76795;SDS011;65745;50.278;18.192;2023-07-29T07:49:24;2.20;;;1.60;;
76795;SDS011;65745;50.278;18.192;2023-07-29T07:51:56;2.30;;;1.80;;
76795;SDS011;65745;50.278;18.192;2023-07-29T07:54:28;3.50;;;2.00;;
76795;SDS011;65745;50.278;18.192;2023-07-29T07:57:00;2.50;;;1.80;;
76795;SDS011;65745;50.278;18.192;2023-07-29T07:59:32;2.10;;;1.70;;
76795;SDS011;65745;50.278;18.192;2023-07-29T08:02:05;2.10;;;1.90;;
76795;SDS011;65745;50.278;18.192;2023-07-29T08:04:37;2.10;;;1.80;;
76795;SDS011;65745;50.278;18.192;2023-07-29T08:07:09;2.00;;;1.70;;
76795;SDS011;65745;50.278;18.192;2023-07-29T08:09:42;2.60;;;1.90;;
76795;SDS011;65745;50.278;18.192;2023-07-29T08:12:14;2.40;;;2.00;;
76795;SDS011;65745;50.278;18.192;2023-07-29T08:14:48;2.20;;;1.90;;
76795;SDS011;65745;50.278;18.192;2023-07-29T08:17:20;2.60;;;2.00;;
76795;SDS011;65745;50.278;18.192;2023-07-29T08:19:52;2.40;;;1.90;;
76795;SDS011;65745;50.278;18.192;2023-07-29T08:22:24;3.90;;;1.80;;
76795;SDS011;65745;50.278;18.192;2023-07-29T08:24:56;2.30;;;1.90;;
76795;SDS011;65745;50.278;18.192;2023-07-29T08:27:28;2.50;;;2.10;;
76795;SDS011;65745;50.278;18.192;2023-07-29T08:30:00;2.00;;;1.80;;
76795;SDS011;65745;50.278;18.192;2023-07-29T08:32:32;2.20;;;1.90;;
76795;SDS011;65745;50.278;18.192;2023-07-29T08:35:05;2.50;;;2.30;;
76795;SDS011;65745;50.278;18.192;2023-07-29T08:37:38;2.70;;;2.20;;
76795;SDS011;65745;50.278;18.192;2023-07-29T08:40:10;2.70;;;1.80;;
76795;SDS011;65745;50.278;18.192;2023-07-29T08:42:43;3.40;;;2.20;;
76795;SDS011;65745;50.278;18.192;2023-07-29T08:45:18;3.10;;;1.90;;
76795;SDS011;65745;50.278;18.192;2023-07-29T08:47:51;3.70;;;2.40;;
76795;SDS011;65745;50.278;18.192;2023-07-29T08:50:28;3.00;;;2.00;;
76795;SDS011;65745;50.278;18.192;2023-07-29T08:53:02;2.90;;;2.30;;
76795;SDS011;65745;50.278;18.192;2023-07-29T08:55:35;2.80;;;2.50;;
76795;SDS011;65745;50.278;18.192;2023-07-29T08:58:07;2.60;;;2.30;;
76795;SDS011;65745;50.278;18.192;2023-07-29T09:00:39;2.60;;;2.00;;
76795;SDS011;65745;50.278;18.192;2023-07-29T09:03:12;3.10;;;2.20;;
76795;SDS011;65745;50.278;18.192;2023-07-29T09:05:44;2.40;;;1.90;;
76795;SDS011;65745;50.278;18.192;2023-07-29T09:08:18;3.10;;;2.30;;
76795;SDS011;65745;50.278;18.192;2023-07-29T09:10:51;4.60;;;2.60;;
76795;SDS011;65745;50.278;18.192;2023-07-29T09:13:24;2.70;;;2.10;;
76795;SDS011;65745;50.278;18.192;2023-07-29T09:15:56;2.30;;;1.80;;
76795;SDS011;65745;50.278;18.192;2023-07-29T09:18:28;2.40;;;1.90;;
76795;SDS011;65745;50.278;18.192;2023-07-29T09:21:01;2.90;;;2.10;;
76795;SDS011;65745;50.278;18.192;2023-07-29T09:23:39;2.30;;;1.90;;
76795;SDS011;65745;50.278;18.192;2023-07-29T09:26:12;2.60;;;1.70;;
76795;SDS011;65745;50.278;18.192;2023-07-29T09:28:53;4.20;;;1.90;;
76795;SDS011;65745;50.278;18.192;2023-07-29T09:31:27;2.20;;;2.00;;
76795;SDS011;65745;50.278;18.192;2023-07-29T09:34:00;2.20;;;2.00;;
76795;SDS011;65745;50.278;18.192;2023-07-29T09:36:33;2.60;;;1.70;;
76795;SDS011;65745;50.278;18.192;2023-07-29T09:39:10;2.90;;;2.40;;
76795;SDS011;65745;50.278;18.192;2023-07-29T09:41:46;2.40;;;1.80;;
76795;SDS011;65745;50.278;18.192;2023-07-29T09:44:19;3.00;;;2.00;;
76795;SDS011;65745;50.278;18.192;2023-07-29T09:46:51;2.70;;;1.90;;
76795;SDS011;65745;50.278;18.192;2023-07-29T09:49:24;2.90;;;2.60;;
76795;SDS011;65745;50.278;18.192;2023-07-29T09:51:56;2.70;;;2.30;;
76795;SDS011;65745;50.278;18.192;2023-07-29T09:54:31;2.70;;;2.40;;
76795;SDS011;65745;50.278;18.192;2023-07-29T09:57:04;4.00;;;2.20;;
76795;SDS011;65745;50.278;18.192;2023-07-29T09:59:38;4.50;;;2.10;;
76795;SDS011;65745;50.278;18.192;2023-07-29T10:02:13;3.80;;;2.40;;
76795;SDS011;65745;50.278;18.192;2023-07-29T10:04:46;3.10;;;2.60;;
76795;SDS011;65745;50.278;18.192;2023-07-29T10:07:19;2.90;;;2.40;;
76795;SDS011;65745;50.278;18.192;2023-07-29T10:09:52;3.00;;;2.40;;
76795;SDS011;65745;50.278;18.192;2023-07-29T10:12:26;4.60;;;2.50;;
76795;SDS011;65745;50.278;18.192;2023-07-29T10:15:01;3.30;;;2.50;;
76795;SDS011;65745;50.278;18.192;2023-07-29T10:17:35;3.40;;;2.70;;
76795;SDS011;65745;50.278;18.192;2023-07-29T10:20:10;2.70;;;2.40;;
76795;SDS011;65745;50.278;18.192;2023-07-29T10:22:43;4.80;;;2.10;;
76795;SDS011;65745;50.278;18.192;2023-07-29T10:25:17;3.20;;;2.20;;
76795;SDS011;65745;50.278;18.192;2023-07-29T10:27:53;2.50;;;2.30;;
76795;SDS011;65745;50.278;18.192;2023-07-29T10:30:31;3.70;;;2.40;;
76795;SDS011;65745;50.278;18.192;2023-07-29T10:33:04;2.70;;;2.10;;
76795;SDS011;65745;50.278;18.192;2023-07-29T10:35:37;3.20;;;2.30;;
76795;SDS011;65745;50.278;18.192;2023-07-29T10:38:10;2.80;;;2.40;;
76795;SDS011;65745;50.278;18.192;2023-07-29T10:40:46;4.40;;;2.30;;
76795;SDS011;65745;50.278;18.192;2023-07-29T10:43:24;3.40;;;2.30;;
76795;SDS011;65745;50.278;18.192;2023-07-29T10:45:57;3.70;;;2.30;;
76795;SDS011;65745;50.278;18.192;2023-07-29T10:48:52;3.90;;;2.30;;
76795;SDS011;65745;50.278;18.192;2023-07-29T10:51:26;3.90;;;2.70;;
76795;SDS011;65745;50.278;18.192;2023-07-29T10:54:00;3.00;;;2.70;;
76795;SDS011;65745;50.278;18.192;2023-07-29T10:56:33;2.70;;;2.30;;
76795;SDS011;65745;50.278;18.192;2023-07-29T11:02:11;4.50;;;2.60;;
76795;SDS011;65745;50.278;18.192;2023-07-29T11:04:49;4.20;;;2.20;;
76795;SDS011;65745;50.278;18.192;2023-07-29T11:07:22;2.40;;;2.20;;
76795;SDS011;65745;50.278;18.192;2023-07-29T11:09:59;3.10;;;2.60;;
76795;SDS011;65745;50.278;18.192;2023-07-29T11:12:43;2.90;;;2.50;;
76795;SDS011;65745;50.278;18.192;2023-07-29T11:15:18;2.60;;;2.40;;
76795;SDS011;65745;50.278;18.192;2023-07-29T11:17:52;2.90;;;2.70;;
76795;SDS011;65745;50.278;18.192;2023-07-29T11:20:26;3.30;;;3.00;;
76795;SDS011;65745;50.278;18.192;2023-07-29T11:23:00;3.90;;;3.00;;
76795;SDS011;65745;50.278;18.192;2023-07-29T11:25:34;3.40;;;3.10;;
76795;SDS011;65745;50.278;18.192;2023-07-29T11:28:07;4.10;;;3.00;;
76795;SDS011;65745;50.278;18.192;2023-07-29T11:30:40;3.00;;;2.70;;
76795;SDS011;65745;50.278;18.192;2023-07-29T11:33:12;3.30;;;2.30;;
76795;SDS011;65745;50.278;18.192;2023-07-29T11:35:44;3.00;;;2.70;;
76795;SDS011;65745;50.278;18.192;2023-07-29T11:38:17;2.90;;;2.60;;
76795;SDS011;65745;50.278;18.192;2023-07-29T11:40:58;3.50;;;2.30;;
76795;SDS011;65745;50.278;18.192;2023-07-29T11:43:35;2.70;;;2.40;;
76795;SDS011;65745;50.278;18.192;2023-07-29T11:46:08;3.20;;;2.50;;
76795;SDS011;65745;50.278;18.192;2023-07-29T11:48:41;4.10;;;2.90;;
76795;SDS011;65745;50.278;18.192;2023-07-29T11:51:16;2.70;;;2.40;;
76795;SDS011;65745;50.278;18.192;2023-07-29T11:53:48;3.40;;;2.70;;
76795;SDS011;65745;50.278;18.192;2023-07-29T11:56:21;3.10;;;2.70;;
76795;SDS011;65745;50.278;18.192;2023-07-29T11:58:54;4.10;;;2.50;;
76795;SDS011;65745;50.278;18.192;2023-07-29T12:01:27;2.80;;;2.50;;
76795;SDS011;65745;50.278;18.192;2023-07-29T12:03:59;3.70;;;2.50;;
76795;SDS011;65745;50.278;18.192;2023-07-29T12:06:32;2.90;;;2.50;;
76795;SDS011;65745;50.278;18.192;2023-07-29T12:09:05;2.60;;;2.30;;
76795;SDS011;65745;50.278;18.192;2023-07-29T12:11:38;3.10;;;2.50;;
76795;SDS011;65745;50.278;18.192;2023-07-29T12:14:11;2.90;;;2.70;;
76795;SDS011;65745;50.278;18.192;2023-07-29T12:16:44;3.80;;;2.70;;
76795;SDS011;65745;50.278;18.192;2023-07-29T12:19:18;3.60;;;2.70;;
76795;SDS011;65745;50.278;18.192;2023-07-29T12:21:51;2.90;;;2.60;;
76795;SDS011;65745;50.278;18.192;2023-07-29T12:24:24;3.00;;;2.50;;
76795;SDS011;65745;50.278;18.192;2023-07-29T12:26:57;2.70;;;2.20;;
76795;SDS011;65745;50.278;18.192;2023-07-29T12:29:29;2.60;;;2.20;;
76795;SDS011;65745;50.278;18.192;2023-07-29T12:32:02;2.30;;;2.10;;
76795;SDS011;65745;50.278;18.192;2023-07-29T12:34:35;4.10;;;2.40;;
76795;SDS011;65745;50.278;18.192;2023-07-29T12:37:09;2.70;;;2.30;;
76795;SDS011;65745;50.278;18.192;2023-07-29T12:39:41;5.00;;;2.40;;
76795;SDS011;65745;50.278;18.192;2023-07-29T12:42:13;3.00;;;2.20;;
76795;SDS011;65745;50.278;18.192;2023-07-29T12:44:46;3.30;;;2.60;;
76795;SDS011;65745;50.278;18.192;2023-07-29T12:47:18;3.40;;;2.00;;
76795;SDS011;65745;50.278;18.192;2023-07-29T12:49:50;2.50;;;2.20;;
76795;SDS011;65745;50.278;18.192;2023-07-29T12:52:22;2.30;;;1.90;;
76795;SDS011;65745;50.278;18.192;2023-07-29T12:54:54;2.40;;;1.90;;
76795;SDS011;65745;50.278;18.192;2023-07-29T12:57:27;2.60;;;1.90;;
76795;SDS011;65745;50.278;18.192;2023-07-29T12:59:59;3.00;;;1.80;;
76795;SDS011;65745;50.278;18.192;2023-07-29T13:02:31;3.00;;;1.80;;
76795;SDS011;65745;50.278;18.192;2023-07-29T13:05:04;2.60;;;1.80;;
76795;SDS011;65745;50.278;18.192;2023-07-29T13:07:40;3.60;;;1.60;;
76795;SDS011;65745;50.278;18.192;2023-07-29T13:10:13;2.10;;;1.50;;
76795;SDS011;65745;50.278;18.192;2023-07-29T13:12:45;2.70;;;1.80;;
76795;SDS011;65745;50.278;18.192;2023-07-29T13:15:18;2.90;;;1.60;;
76795;SDS011;65745;50.278;18.192;2023-07-29T13:17:50;2.60;;;1.90;;
76795;SDS011;65745;50.278;18.192;2023-07-29T13:20:22;2.30;;;1.90;;
76795;SDS011;65745;50.278;18.192;2023-07-29T13:22:54;1.80;;;1.50;;
76795;SDS011;65745;50.278;18.192;2023-07-29T13:25:27;2.20;;;1.90;;
76795;SDS011;65745;50.278;18.192;2023-07-29T13:27:59;2.40;;;1.80;;
76795;SDS011;65745;50.278;18.192;2023-07-29T13:30:31;3.40;;;1.90;;
76795;SDS011;65745;50.278;18.192;2023-07-29T13:33:03;2.20;;;1.90;;
76795;SDS011;65745;50.278;18.192;2023-07-29T13:35:36;2.40;;;1.50;;
76795;SDS011;65745;50.278;18.192;2023-07-29T13:38:08;2.60;;;1.90;;
76795;SDS011;65745;50.278;18.192;2023-07-29T13:40:40;3.90;;;1.90;;
76795;SDS011;65745;50.278;18.192;2023-07-29T13:43:13;2.80;;;1.90;;
76795;SDS011;65745;50.278;18.192;2023-07-29T13:45:45;2.30;;;1.70;;
76795;SDS011;65745;50.278;18.192;2023-07-29T13:48:19;2.80;;;1.90;;
76795;SDS011;65745;50.278;18.192;2023-07-29T13:50:51;2.10;;;1.80;;
76795;SDS011;65745;50.278;18.192;2023-07-29T13:53:23;2.40;;;2.10;;
76795;SDS011;65745;50.278;18.192;2023-07-29T13:55:56;2.10;;;1.90;;
76795;SDS011;65745;50.278;18.192;2023-07-29T13:58:28;2.60;;;2.00;;
76795;SDS011;65745;50.278;18.192;2023-07-29T14:01:00;2.40;;;2.20;;
76795;SDS011;65745;50.278;18.192;2023-07-29T14:03:32;3.40;;;1.90;;
76795;SDS011;65745;50.278;18.192;2023-07-29T14:06:04;2.50;;;2.20;;
76795;SDS011;65745;50.278;18.192;2023-07-29T14:08:36;2.10;;;1.80;;
76795;SDS011;65745;50.278;18.192;2023-07-29T14:11:10;2.90;;;1.80;;
76795;SDS011;65745;50.278;18.192;2023-07-29T14:13:42;2.10;;;1.60;;
76795;SDS011;65745;50.278;18.192;2023-07-29T14:16:14;2.80;;;1.70;;
76795;SDS011;65745;50.278;18.192;2023-07-29T14:18:46;2.50;;;1.80;;
76795;SDS011;65745;50.278;18.192;2023-07-29T14:21:18;3.40;;;1.80;;
76795;SDS011;65745;50.278;18.192;2023-07-29T14:23:50;1.70;;;1.40;;
76795;SDS011;65745;50.278;18.192;2023-07-29T14:26:22;2.50;;;1.80;;
76795;SDS011;65745;50.278;18.192;2023-07-29T14:28:55;2.10;;;1.70;;
76795;SDS011;65745;50.278;18.192;2023-07-29T14:31:27;2.80;;;1.80;;
76795;SDS011;65745;50.278;18.192;2023-07-29T14:33:59;1.70;;;1.40;;
76795;SDS011;65745;50.278;18.192;2023-07-29T14:36:31;2.50;;;1.70;;
76795;SDS011;65745;50.278;18.192;2023-07-29T14:39:04;2.00;;;1.50;;
76795;SDS011;65745;50.278;18.192;2023-07-29T14:41:36;1.90;;;1.40;;
76795;SDS011;65745;50.278;18.192;2023-07-29T14:44:08;4.10;;;1.90;;
76795;SDS011;65745;50.278;18.192;2023-07-29T14:46:40;3.30;;;1.60;;
76795;SDS011;65745;50.278;18.192;2023-07-29T14:49:12;2.60;;;1.80;;
76795;SDS011;65745;50.278;18.192;2023-07-29T14:51:45;2.80;;;1.70;;
76795;SDS011;65745;50.278;18.192;2023-07-29T14:54:17;2.60;;;1.70;;
76795;SDS011;65745;50.278;18.192;2023-07-29T14:56:49;2.00;;;1.50;;
76795;SDS011;65745;50.278;18.192;2023-07-29T14:59:21;2.60;;;1.50;;
76795;SDS011;65745;50.278;18.192;2023-07-29T15:01:53;1.60;;;1.30;;
76795;SDS011;65745;50.278;18.192;2023-07-29T15:04:25;2.30;;;1.70;;
76795;SDS011;65745;50.278;18.192;2023-07-29T15:06:58;2.40;;;1.70;;
76795;SDS011;65745;50.278;18.192;2023-07-29T15:09:30;1.70;;;1.40;;